Terminal Aerodrome Forecast
Issued by NWS

Home | Current Version | Previous Version | Text Only | Print | Product List | Glossary On
Versions: 1 2 3 4 5 6 7 8 9 10 11 12 13 14 15 16
000
FTUS46 KMTR 012300
TAFSTS
TAF
KSTS 012339Z 0200/0224 21010KT P6SM SCT035 BKN040 BKN060
     FM020500 20007KT P6SM BKN020
     FM020700 VRB03KT P6SM OVC015
     FM021300 00000KT P6SM OVC008
     FM021700 VRB04KT P6SM SKC
     FM022000 22006KT P6SM SKC=

USA.gov is the U.S. government's official web portal to all federal, state and local government web resources and services.